Time;durP1;ratioP1;P1;durP2;ratioP2;P2;SDS_P1;SDS_P2;PMS_P1;PMS_P2;Temp;Humidity;BMP_temperature;BMP_pressure;BME280_temperature;BME280_humidity;BME280_pressure;Samples;Min_cycle;Max_cycle;Signal;HPM_P1;HPM_P2
2022/07/25 00:01:03;;;;;;;1.10;0.95;;;25.00;63.50;;;;;;5043463;28;20026;-65
2022/07/25 00:03:28;;;;;;;1.52;1.17;;;25.00;63.60;;;;;;5043050;28;20112;-70
2022/07/25 00:05:54;;;;;;;2.53;1.85;;;24.90;63.70;;;;;;5045241;28;20117;-70
2022/07/25 00:08:20;;;;;;;0.93;0.93;;;24.90;63.80;;;;;;5049061;28;20066;-70
2022/07/25 00:10:46;;;;;;;0.82;0.82;;;24.90;63.80;;;;;;5040025;28;20032;-70
2022/07/25 00:13:11;;;;;;;1.17;1.05;;;24.90;63.90;;;;;;5049636;28;20511;-65
2022/07/25 00:15:37;;;;;;;1.00;1.00;;;24.80;64.00;;;;;;5048501;28;20458;-70
2022/07/25 00:18:03;;;;;;;1.15;0.85;;;24.80;64.20;;;;;;5046970;28;20411;-65
2022/07/25 00:20:28;;;;;;;0.80;0.75;;;24.70;64.30;;;;;;5046008;28;20033;-69
2022/07/25 00:22:54;;;;;;;1.00;1.00;;;24.70;64.40;;;;;;5048090;28;20460;-65
2022/07/25 00:25:20;;;;;;;0.70;0.70;;;24.70;64.40;;;;;;5050314;28;20487;-70
2022/07/25 00:27:45;;;;;;;1.60;1.50;;;24.70;64.40;;;;;;5043413;28;20075;-70
2022/07/25 00:30:11;;;;;;;1.42;1.10;;;24.70;64.40;;;;;;5033182;28;20099;-70
2022/07/25 00:32:37;;;;;;;1.77;0.80;;;24.70;64.40;;;;;;5049425;28;20114;-71
2022/07/25 00:35:04;;;;;;;1.02;0.93;;;24.60;64.30;;;;;;5047645;28;20096;-70
2022/07/25 00:37:29;;;;;;;1.23;1.00;;;24.70;64.50;;;;;;5047985;28;20116;-70
2022/07/25 00:39:55;;;;;;;0.90;0.90;;;24.60;64.50;;;;;;5046559;28;20512;-70
2022/07/25 00:42:22;;;;;;;1.27;0.95;;;24.60;64.50;;;;;;5045327;28;20075;-64
2022/07/25 00:44:49;;;;;;;1.65;1.52;;;24.60;64.70;;;;;;5048358;28;20350;-65
2022/07/25 00:47:15;;;;;;;0.80;0.80;;;24.50;64.70;;;;;;5062583;28;20095;-64
2022/07/25 00:49:41;;;;;;;1.20;1.10;;;24.50;64.70;;;;;;5059870;28;20116;-65
2022/07/25 00:52:07;;;;;;;1.10;1.00;;;24.50;64.80;;;;;;5041371;28;20094;-65
2022/07/25 00:54:33;;;;;;;1.13;1.02;;;24.50;64.90;;;;;;5038721;28;20043;-65
2022/07/25 00:56:58;;;;;;;1.42;1.08;;;24.50;64.90;;;;;;5039947;28;20025;-64
2022/07/25 00:59:24;;;;;;;1.60;1.48;;;24.40;65.00;;;;;;5064911;28;20036;-65
2022/07/25 01:01:50;;;;;;;1.40;1.30;;;24.40;65.00;;;;;;5049281;28;20045;-65
2022/07/25 01:04:16;;;;;;;1.60;1.23;;;24.40;65.00;;;;;;5045651;28;20025;-65
2022/07/25 01:06:42;;;;;;;6.18;1.90;;;24.40;65.20;;;;;;5043070;28;20033;-65
2022/07/25 01:09:08;;;;;;;1.10;1.00;;;24.30;65.40;;;;;;5040347;28;20040;-70
2022/07/25 01:11:34;;;;;;;1.17;1.00;;;24.20;65.50;;;;;;5042288;28;20048;-65
2022/07/25 01:13:59;;;;;;;1.63;1.15;;;24.20;65.70;;;;;;5048959;28;20029;-65
2022/07/25 01:16:25;;;;;;;2.17;1.67;;;24.10;65.90;;;;;;5045567;28;20032;-65
2022/07/25 01:18:51;;;;;;;1.58;1.33;;;24.10;66.00;;;;;;5040936;28;20040;-65
2022/07/25 01:21:16;;;;;;;1.65;1.42;;;24.10;66.00;;;;;;5045479;28;20025;-65
2022/07/25 01:23:42;;;;;;;3.05;1.70;;;24.10;66.10;;;;;;5048481;28;20048;-65
2022/07/25 01:26:08;;;;;;;1.80;1.48;;;24.10;66.20;;;;;;5047809;28;20025;-65
2022/07/25 01:28:33;;;;;;;1.70;1.33;;;24.00;66.30;;;;;;5066973;28;20040;-65
2022/07/25 01:30:59;;;;;;;1.63;1.52;;;24.00;66.30;;;;;;5047207;28;20124;-65
2022/07/25 01:33:25;;;;;;;1.30;1.02;;;24.00;66.40;;;;;;5047271;28;20044;-65
2022/07/25 01:35:50;;;;;;;1.38;1.27;;;24.00;66.30;;;;;;5044780;28;20358;-65
2022/07/25 01:38:16;;;;;;;1.13;1.02;;;24.00;66.30;;;;;;5053308;28;20064;-65
2022/07/25 01:40:43;;;;;;;2.78;1.83;;;24.00;66.30;;;;;;5043033;28;20036;-65
2022/07/25 01:43:10;;;;;;;2.67;1.48;;;24.00;66.40;;;;;;5045402;28;20082;-65
2022/07/25 01:45:36;;;;;;;1.50;1.40;;;23.90;66.40;;;;;;5033334;28;20042;-66
2022/07/25 01:48:02;;;;;;;1.92;1.73;;;23.90;66.40;;;;;;5042008;28;20144;-65
2022/07/25 01:50:28;;;;;;;1.88;1.50;;;23.90;66.50;;;;;;5043677;28;20036;-65
2022/07/25 01:52:54;;;;;;;1.90;1.80;;;23.90;66.50;;;;;;5041380;28;20029;-70
2022/07/25 01:55:19;;;;;;;1.40;1.13;;;23.90;66.50;;;;;;5041006;28;20119;-64
2022/07/25 01:57:45;;;;;;;2.03;1.55;;;23.90;66.50;;;;;;5046594;28;20412;-70
2022/07/25 02:00:13;;;;;;;2.13;1.30;;;23.90;66.50;;;;;;5042020;28;20029;-70
2022/07/25 02:02:41;;;;;;;1.48;1.38;;;23.90;66.50;;;;;;5056959;28;20091;-70
2022/07/25 02:05:08;;;;;;;2.03;1.60;;;23.90;66.60;;;;;;5048207;28;20136;-65
2022/07/25 02:07:35;;;;;;;1.45;1.23;;;23.90;66.60;;;;;;5041920;28;20061;-65
2022/07/25 02:10:04;;;;;;;1.88;1.70;;;23.90;66.70;;;;;;5044843;28;20345;-65
2022/07/25 02:12:29;;;;;;;1.92;1.70;;;23.80;66.70;;;;;;5058010;28;20128;-70
2022/07/25 02:14:55;;;;;;;1.70;1.20;;;23.80;66.80;;;;;;5044795;28;20112;-70
2022/07/25 02:17:21;;;;;;;1.67;1.40;;;23.80;66.80;;;;;;5045176;28;20025;-70
2022/07/25 02:19:47;;;;;;;1.77;1.30;;;23.80;66.80;;;;;;5038318;28;20103;-70
2022/07/25 02:22:13;;;;;;;2.83;1.98;;;23.80;67.00;;;;;;5033620;28;20032;-70
2022/07/25 02:24:42;;;;;;;2.45;1.45;;;23.70;66.90;;;;;;5050679;28;20403;-70
2022/07/25 02:27:08;;;;;;;5.40;2.33;;;23.70;67.00;;;;;;5057096;28;20029;-70
2022/07/25 02:29:34;;;;;;;1.45;1.35;;;23.70;67.10;;;;;;5038830;28;20033;-70
2022/07/25 02:31:59;;;;;;;1.90;1.60;;;23.60;67.10;;;;;;5045841;28;20029;-71
2022/07/25 02:34:25;;;;;;;2.03;1.63;;;23.70;67.10;;;;;;5036776;28;20124;-70
2022/07/25 02:36:51;;;;;;;1.88;1.40;;;23.70;67.00;;;;;;5037801;28;20037;-70
2022/07/25 02:39:17;;;;;;;1.38;1.27;;;23.70;67.10;;;;;;5047706;28;20069;-70
2022/07/25 02:41:43;;;;;;;1.58;1.48;;;23.70;67.10;;;;;;5047925;28;20456;-70
2022/07/25 02:44:09;;;;;;;2.35;1.83;;;23.70;67.20;;;;;;5053902;28;20349;-71
2022/07/25 02:46:34;;;;;;;2.17;1.95;;;23.60;67.20;;;;;;5038054;28;20108;-70
2022/07/25 02:49:01;;;;;;;2.05;1.73;;;23.60;67.20;;;;;;5045581;28;20403;-65
2022/07/25 02:51:26;;;;;;;2.75;1.50;;;23.70;67.20;;;;;;5039768;28;20045;-69
2022/07/25 02:53:52;;;;;;;1.77;1.60;;;23.70;67.20;;;;;;5041409;28;20041;-65
2022/07/25 02:56:18;;;;;;;2.65;1.67;;;23.70;67.20;;;;;;5049317;28;20061;-70
2022/07/25 02:58:43;;;;;;;2.63;1.30;;;23.60;67.20;;;;;;5046152;28;20037;-65
2022/07/25 03:01:09;;;;;;;2.33;1.92;;;23.60;67.20;;;;;;5037543;28;20029;-70
2022/07/25 03:03:35;;;;;;;1.60;1.45;;;23.60;67.20;;;;;;5032558;28;20041;-70
2022/07/25 03:06:01;;;;;;;2.00;1.70;;;23.60;67.30;;;;;;5037189;28;20116;-70
2022/07/25 03:08:27;;;;;;;2.08;1.85;;;23.60;67.40;;;;;;5036262;28;20060;-70
2022/07/25 03:10:53;;;;;;;2.00;1.75;;;23.60;67.40;;;;;;5058341;28;20039;-65
2022/07/25 03:13:18;;;;;;;2.25;2.05;;;23.60;67.40;;;;;;5042305;28;20033;-65
2022/07/25 03:15:44;;;;;;;1.60;1.50;;;23.60;67.30;;;;;;5041084;28;20025;-65
2022/07/25 03:18:10;;;;;;;1.77;1.65;;;23.60;67.30;;;;;;5044113;28;20061;-70
2022/07/25 03:20:36;;;;;;;1.92;1.73;;;23.60;67.30;;;;;;5037954;28;20052;-70
2022/07/25 03:23:01;;;;;;;2.13;1.92;;;23.60;67.50;;;;;;5035030;28;20377;-70
2022/07/25 03:25:27;;;;;;;3.60;2.03;;;23.50;67.60;;;;;;5031577;28;20377;-65
2022/07/25 03:27:53;;;;;;;2.55;1.60;;;23.50;67.70;;;;;;5042743;28;20477;-66
2022/07/25 03:30:18;;;;;;;2.25;1.75;;;23.50;67.70;;;;;;5038882;28;20025;-70
2022/07/25 03:32:44;;;;;;;2.65;1.90;;;23.50;67.80;;;;;;5047306;28;20384;-70
2022/07/25 03:35:10;;;;;;;2.78;1.92;;;23.40;67.80;;;;;;5042417;28;20033;-70
2022/07/25 03:37:35;;;;;;;2.15;1.67;;;23.40;67.90;;;;;;5042827;28;20069;-70
2022/07/25 03:40:01;;;;;;;2.15;1.95;;;23.40;68.00;;;;;;5039734;28;20036;-65
2022/07/25 03:42:27;;;;;;;2.30;1.58;;;23.40;68.00;;;;;;5036569;28;20046;-65
2022/07/25 03:44:52;;;;;;;2.50;1.80;;;23.40;68.10;;;;;;5043698;28;20495;-70
2022/07/25 03:47:18;;;;;;;1.83;1.67;;;23.40;68.20;;;;;;5037726;28;20033;-70
2022/07/25 03:49:44;;;;;;;2.72;2.25;;;23.30;68.10;;;;;;5046710;28;20021;-70
2022/07/25 03:52:09;;;;;;;2.78;1.92;;;23.30;68.20;;;;;;5039049;28;20028;-64
2022/07/25 03:54:35;;;;;;;3.30;2.40;;;23.30;68.20;;;;;;5038718;28;20106;-70
2022/07/25 03:57:01;;;;;;;2.00;1.42;;;23.30;68.30;;;;;;5044819;28;20029;-65
2022/07/25 03:59:26;;;;;;;2.03;1.35;;;23.30;68.30;;;;;;5038769;28;20040;-65
2022/07/25 04:01:52;;;;;;;1.80;1.52;;;23.30;68.20;;;;;;5042546;28;20104;-70
2022/07/25 04:04:18;;;;;;;2.50;1.70;;;23.30;68.20;;;;;;5031028;28;20025;-65
2022/07/25 04:06:45;;;;;;;3.63;1.73;;;23.30;68.40;;;;;;5032034;28;20421;-65
2022/07/25 04:09:11;;;;;;;1.98;1.70;;;23.30;68.30;;;;;;5038135;28;20029;-64
2022/07/25 04:11:38;;;;;;;3.50;1.85;;;23.30;68.30;;;;;;5044798;28;20080;-64
2022/07/25 04:14:04;;;;;;;3.08;2.38;;;23.30;68.30;;;;;;5049053;28;20106;-64
2022/07/25 04:16:30;;;;;;;2.53;1.90;;;23.40;68.50;;;;;;5039450;28;20541;-69
2022/07/25 04:18:56;;;;;;;1.83;1.73;;;23.40;68.50;;;;;;5048857;28;20033;-69
2022/07/25 04:21:22;;;;;;;3.10;2.08;;;23.40;68.50;;;;;;5043366;28;20520;-64
2022/07/25 04:23:48;;;;;;;1.90;1.80;;;23.40;68.40;;;;;;5044692;28;20026;-70
2022/07/25 04:26:15;;;;;;;2.28;2.08;;;23.40;68.50;;;;;;5040649;28;20076;-70
2022/07/25 04:28:40;;;;;;;2.45;2.25;;;23.40;68.50;;;;;;5043042;28;20116;-64
2022/07/25 04:31:06;;;;;;;4.63;1.83;;;23.50;68.50;;;;;;5050413;28;20116;-64
2022/07/25 04:33:32;;;;;;;2.47;2.00;;;23.50;68.50;;;;;;5041702;28;20459;-65
2022/07/25 04:35:57;;;;;;;1.52;1.40;;;23.50;68.60;;;;;;5036225;28;20036;-64
2022/07/25 04:38:23;;;;;;;2.03;1.83;;;23.50;68.50;;;;;;5046069;28;20365;-65
2022/07/25 04:40:49;;;;;;;1.67;1.45;;;23.50;68.50;;;;;;5039800;28;20715;-65
2022/07/25 04:43:15;;;;;;;2.28;1.70;;;23.50;68.50;;;;;;5046325;28;20041;-65
2022/07/25 04:45:40;;;;;;;2.47;1.90;;;23.50;68.60;;;;;;5039497;28;20053;-70
2022/07/25 04:48:06;;;;;;;3.53;2.33;;;23.60;68.70;;;;;;5033420;28;20037;-65
2022/07/25 04:50:32;;;;;;;1.98;1.52;;;23.50;68.70;;;;;;5047051;28;20037;-70
2022/07/25 04:52:57;;;;;;;2.83;2.05;;;23.60;68.70;;;;;;5044770;28;20891;-70
2022/07/25 04:55:23;;;;;;;8.63;2.70;;;23.60;68.70;;;;;;5050769;28;20025;-65
2022/07/25 04:57:49;;;;;;;2.40;1.83;;;23.60;68.70;;;;;;5042740;28;20029;-65
2022/07/25 05:00:16;;;;;;;1.50;1.40;;;23.70;68.80;;;;;;5049906;28;20040;-65
2022/07/25 05:02:41;;;;;;;1.60;1.50;;;23.80;68.80;;;;;;5052321;28;20087;-65
2022/07/25 05:05:08;;;;;;;2.45;1.60;;;23.80;68.90;;;;;;5043408;28;20021;-65
2022/07/25 05:07:35;;;;;;;1.85;1.70;;;23.90;68.80;;;;;;5048586;28;20056;-65
2022/07/25 05:10:00;;;;;;;2.22;1.77;;;23.90;68.80;;;;;;5038307;28;20511;-65
2022/07/25 05:12:26;;;;;;;2.03;1.33;;;23.90;68.90;;;;;;5040398;28;20041;-70
2022/07/25 05:14:53;;;;;;;2.35;2.15;;;24.00;68.90;;;;;;5043441;28;20133;-71
2022/07/25 05:17:19;;;;;;;1.92;1.83;;;24.00;68.70;;;;;;5043592;28;20052;-71
2022/07/25 05:19:45;;;;;;;2.15;1.95;;;24.10;68.60;;;;;;5061950;28;20065;-70
2022/07/25 05:22:11;;;;;;;2.03;1.60;;;24.20;68.50;;;;;;5048482;28;20056;-70
2022/07/25 05:24:37;;;;;;;2.00;1.55;;;24.20;68.30;;;;;;5036150;28;20029;-70
2022/07/25 05:27:03;;;;;;;3.38;2.53;;;24.30;68.20;;;;;;5042133;28;20079;-70
2022/07/25 05:29:29;;;;;;;3.08;2.38;;;24.30;68.10;;;;;;5044065;28;20565;-71
2022/07/25 05:31:55;;;;;;;1.50;1.40;;;24.40;68.10;;;;;;5049322;28;20061;-70
2022/07/25 05:34:21;;;;;;;1.85;1.70;;;24.40;67.90;;;;;;5041201;28;20422;-70
2022/07/25 05:36:46;;;;;;;1.98;1.77;;;24.50;67.90;;;;;;5046308;28;20138;-70
2022/07/25 05:39:12;;;;;;;2.42;2.22;;;24.50;67.90;;;;;;5054816;28;20025;-70
2022/07/25 05:41:38;;;;;;;2.72;2.13;;;24.60;67.70;;;;;;5039346;28;20392;-70
2022/07/25 05:44:04;;;;;;;3.85;2.30;;;24.60;67.60;;;;;;5040135;28;20096;-70
2022/07/25 05:46:33;;;;;;;5.10;2.63;;;24.70;67.50;;;;;;5040635;28;20650;-71
2022/07/25 05:48:59;;;;;;;2.75;1.77;;;24.70;67.50;;;;;;5039340;28;20022;-71
2022/07/25 05:51:26;;;;;;;2.92;2.15;;;24.70;67.30;;;;;;5038430;28;20111;-70
2022/07/25 05:53:54;;;;;;;2.35;2.15;;;24.70;67.20;;;;;;5039372;28;20501;-70
2022/07/25 05:56:20;;;;;;;6.15;2.40;;;24.70;67.00;;;;;;5040732;28;20022;-70
2022/07/25 05:58:46;;;;;;;2.50;2.30;;;24.70;66.70;;;;;;5038157;28;20049;-71
2022/07/25 06:01:13;;;;;;;2.28;1.73;;;24.80;66.30;;;;;;5034293;28;20286;-70
2022/07/25 06:03:39;;;;;;;3.10;2.47;;;24.90;66.20;;;;;;5038721;28;20037;-71
2022/07/25 06:06:07;;;;;;;4.60;2.30;;;24.90;66.30;;;;;;5039412;28;20083;-71
2022/07/25 06:08:35;;;;;;;2.50;1.90;;;25.00;66.00;;;;;;5059608;28;20068;-71
2022/07/25 06:11:03;;;;;;;2.80;1.85;;;25.10;66.00;;;;;;5035437;28;20029;-65
2022/07/25 06:13:29;;;;;;;2.45;1.90;;;25.20;63.50;;;;;;5039195;28;20538;-70
2022/07/25 06:15:55;;;;;;;3.38;2.40;;;25.20;62.40;;;;;;5036246;28;20041;-65
2022/07/25 06:18:21;;;;;;;2.88;2.35;;;25.30;61.80;;;;;;5042595;28;20058;-70
2022/07/25 06:20:47;;;;;;;4.72;2.42;;;25.40;61.60;;;;;;5033807;28;20033;-70
2022/07/25 06:23:13;;;;;;;3.80;2.60;;;25.50;61.50;;;;;;5036797;28;20029;-71
2022/07/25 06:25:39;;;;;;;6.38;1.83;;;25.50;60.80;;;;;;5040284;28;20473;-70
2022/07/25 06:28:05;;;;;;;2.83;2.40;;;25.60;60.70;;;;;;5044740;28;20038;-71
2022/07/25 06:30:30;;;;;;;2.63;2.17;;;25.70;59.90;;;;;;5040796;28;20040;-65
2022/07/25 06:32:56;;;;;;;4.03;2.03;;;25.70;59.00;;;;;;5059280;28;20068;-70
2022/07/25 06:35:22;;;;;;;3.78;1.75;;;25.80;59.30;;;;;;5047431;28;20040;-70
2022/07/25 06:37:48;;;;;;;4.63;2.83;;;25.80;58.30;;;;;;5050235;28;20045;-71
2022/07/25 06:40:14;;;;;;;3.38;2.38;;;25.80;58.40;;;;;;5039411;28;20036;-66
2022/07/25 06:42:44;;;;;;;3.90;2.55;;;25.90;58.60;;;;;;5045334;28;20021;-71
2022/07/25 06:45:11;;;;;;;5.28;3.05;;;26.00;58.00;;;;;;5045475;28;20017;-66
2022/07/25 06:47:38;;;;;;;3.22;2.25;;;25.90;58.20;;;;;;5040321;28;20058;-66
2022/07/25 06:50:05;;;;;;;2.75;2.35;;;25.90;58.40;;;;;;5040106;28;20033;-66
2022/07/25 06:52:31;;;;;;;2.80;1.83;;;25.80;58.60;;;;;;5036860;28;20115;-66
2022/07/25 06:54:57;;;;;;;3.63;2.55;;;25.80;59.00;;;;;;5039236;28;20033;-66
2022/07/25 06:57:23;;;;;;;4.45;2.72;;;25.80;59.00;;;;;;5036504;28;20045;-66
2022/07/25 06:59:48;;;;;;;3.88;2.35;;;25.80;59.10;;;;;;5038753;28;20041;-65
2022/07/25 07:02:14;;;;;;;3.38;2.20;;;25.80;59.00;;;;;;5039040;28;20037;-67
2022/07/25 07:04:41;;;;;;;2.85;2.42;;;25.70;59.20;;;;;;5041111;28;20033;-70
2022/07/25 07:07:06;;;;;;;2.40;2.20;;;25.70;59.20;;;;;;5042270;28;20508;-70
2022/07/25 07:09:32;;;;;;;3.30;1.90;;;25.60;59.20;;;;;;5036419;28;20099;-72
2022/07/25 07:11:58;;;;;;;2.20;2.00;;;25.60;59.40;;;;;;5042916;28;20104;-71
2022/07/25 07:14:23;;;;;;;3.75;2.60;;;25.60;59.40;;;;;;5039508;28;20041;-71
2022/07/25 07:16:49;;;;;;;5.22;2.72;;;25.60;59.30;;;;;;5038454;28;20037;-65
2022/07/25 07:19:14;;;;;;;4.00;2.15;;;25.60;59.30;;;;;;5033395;28;20053;-65
2022/07/25 07:21:44;;;;;;;4.25;2.35;;;25.70;59.40;;;;;;5037517;28;20133;-65
2022/07/25 07:24:10;;;;;;;2.05;1.92;;;25.70;59.20;;;;;;5037050;28;20036;-65
2022/07/25 07:26:35;;;;;;;2.95;2.55;;;25.80;59.20;;;;;;5038701;28;20640;-65
2022/07/25 07:29:02;;;;;;;2.25;1.85;;;25.90;59.00;;;;;;5034143;28;20037;-65
2022/07/25 07:31:28;;;;;;;3.25;2.95;;;25.90;58.90;;;;;;5053414;28;20041;-65
2022/07/25 07:33:54;;;;;;;2.13;1.85;;;26.00;58.90;;;;;;5053891;28;20078;-65
2022/07/25 07:36:20;;;;;;;2.00;1.45;;;26.00;58.90;;;;;;5038908;28;20503;-71
2022/07/25 07:38:47;;;;;;;3.00;1.73;;;26.20;58.60;;;;;;5045183;28;20055;-65
2022/07/25 07:41:13;;;;;;;4.10;2.22;;;26.30;58.20;;;;;;5042806;28;20083;-66
2022/07/25 07:43:39;;;;;;;2.30;2.10;;;26.30;57.40;;;;;;5039834;28;20533;-65
2022/07/25 07:46:05;;;;;;;2.13;1.52;;;26.40;57.60;;;;;;5038387;28;20029;-65
2022/07/25 07:48:31;;;;;;;2.08;1.85;;;26.50;58.20;;;;;;5037866;28;20037;-65
2022/07/25 07:50:58;;;;;;;1.55;1.17;;;26.50;57.20;;;;;;5039161;28;20048;-70
2022/07/25 07:56:08;;;;;;;1.10;1.00;;;26.50;57.30;;;;;;5042907;28;20180;-71
2022/07/25 07:58:34;;;;;;;1.20;1.10;;;26.60;57.00;;;;;;5044239;28;20033;-71
2022/07/25 08:00:59;;;;;;;1.70;1.40;;;26.70;56.80;;;;;;5039216;28;20464;-70
2022/07/25 08:03:26;;;;;;;2.33;1.38;;;26.80;56.40;;;;;;5046463;28;20407;-71
2022/07/25 08:05:52;;;;;;;1.15;1.13;;;26.80;56.10;;;;;;5047330;28;20057;-71
2022/07/25 08:08:18;;;;;;;1.02;1.00;;;26.90;56.20;;;;;;5049018;28;20088;-71
2022/07/25 08:10:46;;;;;;;1.08;0.98;;;26.90;56.10;;;;;;5049039;28;20040;-72
2022/07/25 08:13:16;;;;;;;6.63;2.25;;;27.00;55.00;;;;;;5047533;28;20028;-69
2022/07/25 08:15:43;;;;;;;1.20;1.00;;;27.00;54.00;;;;;;5046169;28;20037;-69
2022/07/25 08:18:09;;;;;;;1.30;1.02;;;27.10;53.60;;;;;;5047626;28;20037;-64
2022/07/25 08:20:36;;;;;;;1.75;1.35;;;27.00;53.00;;;;;;5052496;28;20038;-64
2022/07/25 08:23:02;;;;;;;1.55;1.08;;;27.00;53.50;;;;;;5051587;28;20017;-64
2022/07/25 08:25:28;;;;;;;1.63;0.88;;;26.90;53.80;;;;;;5042097;28;20120;-65
2022/07/25 08:27:54;;;;;;;1.42;0.95;;;26.90;54.00;;;;;;5048938;28;20017;-64
2022/07/25 08:30:20;;;;;;;1.42;0.80;;;26.80;53.40;;;;;;5048504;28;20554;-64
2022/07/25 08:32:55;;;;;;;1.02;0.98;;;26.70;53.60;;;;;;5047300;28;20040;-64
2022/07/25 08:35:21;;;;;;;0.95;0.65;;;26.70;53.70;;;;;;5049157;28;20021;-65
2022/07/25 08:37:48;;;;;;;2.35;0.90;;;26.80;52.60;;;;;;5057625;28;20022;-65
2022/07/25 08:40:16;;;;;;;0.85;0.80;;;26.80;52.50;;;;;;5049424;28;20025;-64
2022/07/25 08:42:42;;;;;;;0.90;0.90;;;27.00;52.80;;;;;;5047326;28;20436;-64
2022/07/25 08:45:12;;;;;;;1.23;1.00;;;27.10;52.00;;;;;;5048306;28;20029;-64
2022/07/25 08:47:39;;;;;;;1.40;0.85;;;27.20;51.80;;;;;;5049831;28;20472;-64
2022/07/25 08:50:07;;;;;;;1.00;0.90;;;27.20;51.80;;;;;;5050953;28;20525;-69
2022/07/25 08:52:35;;;;;;;1.48;0.93;;;27.20;51.50;;;;;;5048338;28;20045;-71
2022/07/25 08:55:07;;;;;;;1.08;0.70;;;27.20;51.80;;;;;;5049361;28;20485;-70
2022/07/25 08:57:36;;;;;;;0.90;0.90;;;27.30;52.30;;;;;;5040470;28;20108;-70
2022/07/25 09:00:04;;;;;;;0.88;0.88;;;27.40;52.10;;;;;;5029354;28;20037;-71
2022/07/25 09:02:29;;;;;;;0.70;0.70;;;27.40;52.20;;;;;;5049289;28;20036;-70
2022/07/25 09:04:57;;;;;;;1.25;0.82;;;27.60;52.20;;;;;;5049574;28;20384;-70
2022/07/25 09:07:38;;;;;;;0.98;0.70;;;27.60;52.00;;;;;;5046358;28;20072;-70
2022/07/25 09:10:17;;;;;;;1.27;0.70;;;27.60;52.10;;;;;;5051824;28;20078;-70
2022/07/25 09:13:04;;;;;;;1.15;1.05;;;27.70;52.20;;;;;;5051460;28;20099;-70
2022/07/25 09:15:35;;;;;;;1.60;0.82;;;27.60;52.30;;;;;;5041100;28;20033;-71
2022/07/25 09:18:08;;;;;;;0.82;0.73;;;27.60;52.70;;;;;;5052256;28;20470;-70
2022/07/25 09:20:43;;;;;;;3.00;0.80;;;27.60;53.10;;;;;;5050110;28;20029;-70
2022/07/25 09:23:11;;;;;;;0.88;0.60;;;27.70;53.20;;;;;;5048782;28;20029;-70
2022/07/25 09:25:37;;;;;;;0.68;0.68;;;27.80;53.10;;;;;;5051242;28;20112;-69
2022/07/25 09:28:10;;;;;;;0.75;0.75;;;27.80;53.20;;;;;;5050722;28;20379;-70
2022/07/25 09:30:35;;;;;;;0.88;0.85;;;27.90;53.20;;;;;;5051481;28;20060;-69
2022/07/25 09:33:01;;;;;;;0.50;0.50;;;27.90;53.90;;;;;;5044763;28;20058;-69
2022/07/25 09:35:32;;;;;;;3.15;1.27;;;27.90;53.30;;;;;;5051173;28;20040;-69
2022/07/25 09:38:12;;;;;;;0.40;0.40;;;27.70;53.60;;;;;;5051983;28;20033;-68
2022/07/25 09:40:38;;;;;;;0.70;0.70;;;27.60;54.30;;;;;;5047613;28;20025;-69
2022/07/25 09:43:04;;;;;;;1.08;0.73;;;27.40;54.90;;;;;;5050982;28;20021;-69
2022/07/25 09:45:30;;;;;;;1.23;0.95;;;27.50;55.50;;;;;;5045799;28;20491;-69
2022/07/25 09:47:59;;;;;;;1.02;0.82;;;27.60;55.60;;;;;;5050322;28;20037;-69
2022/07/25 09:50:28;;;;;;;0.50;0.50;;;27.90;55.30;;;;;;5048590;28;20032;-71
2022/07/25 09:52:56;;;;;;;0.77;0.77;;;27.90;54.60;;;;;;5062583;28;20033;-70
2022/07/25 09:55:23;;;;;;;0.50;0.50;;;28.00;54.80;;;;;;5039595;28;20472;-69
2022/07/25 09:57:51;;;;;;;0.80;0.68;;;28.10;54.80;;;;;;5038965;28;20112;-69
2022/07/25 10:00:26;;;;;;;0.40;0.40;;;28.10;54.50;;;;;;5049015;28;20025;-67
2022/07/25 10:03:10;;;;;;;0.40;0.40;;;28.20;54.40;;;;;;5050152;28;20732;-67
2022/07/25 10:05:55;;;;;;;0.77;0.52;;;28.20;54.50;;;;;;5049399;28;20021;-66
2022/07/25 10:08:22;;;;;;;1.08;0.70;;;28.40;54.50;;;;;;5045465;28;20131;-66
2022/07/25 10:10:48;;;;;;;0.40;0.40;;;28.30;54.20;;;;;;5047561;28;20033;-66
2022/07/25 10:13:16;;;;;;;0.52;0.40;;;28.10;53.70;;;;;;5046423;28;20044;-64
2022/07/25 10:15:45;;;;;;;1.17;0.80;;;27.90;54.10;;;;;;5046025;28;20511;-64
2022/07/25 10:18:12;;;;;;;0.60;0.60;;;27.70;54.10;;;;;;5047396;28;20046;-64
2022/07/25 10:20:38;;;;;;;0.52;0.52;;;27.70;54.50;;;;;;5048455;28;20039;-64
2022/07/25 10:23:15;;;;;;;0.60;0.60;;;27.80;54.50;;;;;;5050682;28;20371;-64
2022/07/25 10:25:41;;;;;;;0.50;0.50;;;27.90;53.60;;;;;;5048330;28;20544;-64
2022/07/25 10:28:08;;;;;;;1.50;1.27;;;27.90;53.70;;;;;;5046849;28;20063;-64
2022/07/25 10:30:36;;;;;;;0.47;0.47;;;27.90;53.90;;;;;;5049849;28;20029;-64
2022/07/25 10:33:11;;;;;;;1.85;0.75;;;28.10;54.20;;;;;;5044810;28;20107;-64
2022/07/25 10:35:37;;;;;;;0.95;0.90;;;28.10;54.20;;;;;;5040070;28;20547;-65
2022/07/25 10:38:05;;;;;;;0.88;0.73;;;28.30;54.10;;;;;;5047454;28;20104;-64
2022/07/25 10:40:45;;;;;;;0.75;0.65;;;28.40;54.20;;;;;;5047819;28;20091;-65
2022/07/25 10:43:19;;;;;;;0.88;0.60;;;28.50;54.40;;;;;;5045496;28;20103;-63
2022/07/25 10:45:51;;;;;;;0.63;0.63;;;28.60;54.40;;;;;;5048504;28;20795;-64
2022/07/25 10:48:37;;;;;;;1.38;0.70;;;28.70;54.40;;;;;;5033837;28;20059;-65
2022/07/25 10:51:09;;;;;;;0.85;0.82;;;28.60;54.20;;;;;;5040975;28;20025;-65
2022/07/25 10:53:45;;;;;;;0.98;0.73;;;28.60;54.60;;;;;;5047517;28;20029;-65
2022/07/25 10:56:20;;;;;;;0.60;0.60;;;28.60;54.00;;;;;;5046343;28;20052;-65
2022/07/25 10:58:50;;;;;;;1.77;0.68;;;28.70;53.50;;;;;;5046547;28;20484;-64
2022/07/25 11:01:33;;;;;;;2.33;0.85;;;28.80;52.60;;;;;;5048885;28;20033;-64
2022/07/25 11:04:01;;;;;;;0.60;0.60;;;28.70;51.90;;;;;;5049222;28;20079;-64
2022/07/25 11:06:40;;;;;;;0.65;0.65;;;28.70;51.20;;;;;;5046584;28;20038;-65
2022/07/25 11:09:16;;;;;;;0.75;0.75;;;28.80;50.70;;;;;;5049451;28;20060;-65
2022/07/25 11:11:47;;;;;;;0.68;0.50;;;28.80;50.70;;;;;;5049029;28;20037;-65
2022/07/25 11:14:31;;;;;;;0.98;0.50;;;28.70;51.20;;;;;;5050567;28;20044;-63
2022/07/25 11:17:09;;;;;;;0.75;0.55;;;28.80;51.50;;;;;;5042430;28;20032;-63
2022/07/25 11:19:35;;;;;;;0.82;0.70;;;28.90;51.60;;;;;;5040291;28;20442;-63
2022/07/25 11:22:03;;;;;;;0.80;0.70;;;28.90;51.10;;;;;;5050230;28;20050;-63
2022/07/25 11:24:40;;;;;;;0.85;0.77;;;28.80;51.20;;;;;;5047695;28;20040;-64
2022/07/25 11:27:08;;;;;;;1.17;0.63;;;28.80;51.50;;;;;;5046117;28;20025;-64
2022/07/25 11:29:34;;;;;;;0.77;0.70;;;28.90;51.70;;;;;;5046287;28;20045;-65
2022/07/25 11:32:11;;;;;;;0.95;0.60;;;28.90;51.80;;;;;;5061406;28;20056;-64
2022/07/25 11:34:51;;;;;;;0.90;0.60;;;28.90;52.00;;;;;;5043034;28;20036;-64
2022/07/25 11:37:18;;;;;;;0.82;0.70;;;28.90;52.10;;;;;;5044405;28;20029;-64
2022/07/25 11:39:45;;;;;;;0.80;0.80;;;28.90;52.00;;;;;;5039612;28;20463;-64
2022/07/25 11:42:15;;;;;;;0.65;0.65;;;28.90;52.10;;;;;;5037267;28;20056;-63
2022/07/25 11:44:44;;;;;;;2.00;0.70;;;28.80;52.20;;;;;;5044259;28;20271;-63
2022/07/25 11:47:21;;;;;;;0.57;0.50;;;28.70;52.40;;;;;;5037927;28;20025;-63
2022/07/25 11:49:51;;;;;;;1.67;0.60;;;28.50;52.50;;;;;;5041004;28;20484;-64
2022/07/25 11:52:36;;;;;;;4.80;1.27;;;28.40;52.70;;;;;;5039511;28;20400;-62
2022/07/25 11:55:03;;;;;;;0.80;0.80;;;28.30;52.00;;;;;;5039341;28;20487;-63
2022/07/25 11:57:34;;;;;;;1.50;0.70;;;28.00;53.10;;;;;;5036715;28;20033;-62
2022/07/25 12:00:03;;;;;;;1.90;0.75;;;27.90;52.70;;;;;;5051523;28;20587;-63
2022/07/25 12:02:31;;;;;;;0.88;0.80;;;27.70;52.80;;;;;;5036980;28;20032;-63
2022/07/25 12:05:03;;;;;;;1.15;1.05;;;27.60;52.90;;;;;;5039282;28;20469;-62
2022/07/25 12:07:43;;;;;;;1.13;1.00;;;27.60;53.20;;;;;;5033375;28;20115;-63
2022/07/25 12:10:12;;;;;;;1.75;1.30;;;27.50;53.50;;;;;;5035958;28;20112;-63
2022/07/25 12:12:54;;;;;;;0.57;0.57;;;27.40;53.80;;;;;;5034545;28;20129;-63
2022/07/25 12:15:26;;;;;;;0.93;0.63;;;27.30;53.50;;;;;;5036364;28;20356;-64
2022/07/25 12:17:53;;;;;;;1.13;0.90;;;27.40;53.40;;;;;;5039475;28;20033;-64
2022/07/25 12:20:21;;;;;;;0.82;0.82;;;27.50;53.20;;;;;;5040803;28;20025;-64
2022/07/25 12:22:49;;;;;;;0.50;0.50;;;27.70;53.10;;;;;;5034581;28;20021;-65
2022/07/25 12:25:16;;;;;;;1.40;1.05;;;27.80;52.10;;;;;;5038861;28;20033;-65
2022/07/25 12:27:42;;;;;;;0.68;0.68;;;27.80;51.90;;;;;;5039366;28;20037;-65
2022/07/25 12:30:09;;;;;;;1.83;0.82;;;27.80;51.40;;;;;;5036537;28;20136;-64
2022/07/25 12:32:35;;;;;;;0.80;0.50;;;27.90;50.90;;;;;;5041568;28;20056;-64
2022/07/25 12:35:05;;;;;;;4.10;1.58;;;28.00;50.60;;;;;;5036073;28;20500;-64
2022/07/25 12:37:31;;;;;;;1.60;1.23;;;27.90;49.40;;;;;;5037194;28;20029;-63
2022/07/25 12:39:57;;;;;;;1.30;0.77;;;27.80;50.00;;;;;;5042913;28;20036;-63
2022/07/25 12:42:24;;;;;;;3.50;1.42;;;27.70;50.40;;;;;;5038410;28;20071;-63
2022/07/25 12:44:49;;;;;;;0.98;0.82;;;27.80;50.70;;;;;;5043518;28;20040;-63
2022/07/25 12:47:15;;;;;;;2.83;1.35;;;27.80;50.80;;;;;;5058585;28;20492;-64
2022/07/25 12:49:41;;;;;;;2.22;0.70;;;28.20;50.60;;;;;;5039382;28;20064;-65
2022/07/25 12:52:06;;;;;;;3.85;1.75;;;28.50;50.40;;;;;;5042540;28;20044;-66